Time;durP1;ratioP1;P1;durP2;ratioP2;P2;SDS_P1;SDS_P2;PMS_P1;PMS_P2;Temp;Humidity;BMP_temperature;BMP_pressure;BME280_temperature;BME280_humidity;BME280_pressure;Samples;Min_cycle;Max_cycle;Signal;HPM_P1;HPM_P2
2024/02/29 00:00:19;;;;;;;5.93;4.57;;;8.20;99.90;;;;;;4865980;29;20694;-72
2024/02/29 00:02:46;;;;;;;6.33;4.50;;;8.20;99.90;;;;;;4862053;29;20210;-72
2024/02/29 00:05:13;;;;;;;5.47;4.47;;;8.20;99.90;;;;;;4860407;29;20304;-73
2024/02/29 00:07:41;;;;;;;8.43;5.87;;;8.20;99.90;;;;;;4865184;29;20225;-73
2024/02/29 00:10:09;;;;;;;11.23;6.37;;;8.20;99.90;;;;;;4862303;29;21156;-73
2024/02/29 00:12:36;;;;;;;11.87;7.00;;;8.20;99.90;;;;;;4874479;29;20207;-73
2024/02/29 00:15:06;;;;;;;7.87;5.67;;;8.20;99.90;;;;;;4866904;29;20206;-73
2024/02/29 00:17:33;;;;;;;8.50;5.60;;;8.10;99.90;;;;;;4865780;29;20208;-75
2024/02/29 00:20:01;;;;;;;11.83;7.00;;;8.10;99.90;;;;;;4862064;29;20684;-73
2024/02/29 00:22:28;;;;;;;13.60;7.67;;;8.10;99.90;;;;;;4862819;29;20260;-73
2024/02/29 00:24:55;;;;;;;14.20;7.47;;;8.10;99.90;;;;;;4861889;29;20208;-73
2024/02/29 00:27:24;;;;;;;10.17;5.97;;;8.00;99.90;;;;;;4863714;29;20212;-73
2024/02/29 00:29:51;;;;;;;8.53;5.73;;;8.00;99.90;;;;;;4863216;29;20296;-73
2024/02/29 00:32:20;;;;;;;7.43;5.57;;;8.00;99.90;;;;;;4861590;29;20567;-74
2024/02/29 00:34:47;;;;;;;11.43;7.20;;;8.00;99.90;;;;;;4867720;29;20207;-74
2024/02/29 00:37:14;;;;;;;12.40;7.37;;;8.00;99.90;;;;;;4868578;29;20227;-74
2024/02/29 00:39:41;;;;;;;7.63;5.73;;;8.00;99.90;;;;;;4868313;29;20304;-73
2024/02/29 00:42:09;;;;;;;9.00;5.50;;;7.90;99.90;;;;;;4865104;29;20399;-73
2024/02/29 00:44:36;;;;;;;10.40;6.10;;;7.90;99.90;;;;;;4866671;29;20214;-73
2024/02/29 00:47:05;;;;;;;10.57;6.50;;;7.80;99.90;;;;;;4871132;29;20578;-74
2024/02/29 00:49:34;;;;;;;6.63;5.30;;;7.80;99.90;;;;;;4860112;29;20691;-74
2024/02/29 00:52:02;;;;;;;6.80;5.20;;;7.80;99.90;;;;;;4870027;29;20220;-74
2024/02/29 00:54:33;;;;;;;5.63;4.40;;;7.90;99.90;;;;;;4868307;29;20259;-74
2024/02/29 00:57:00;;;;;;;5.93;4.30;;;7.90;99.90;;;;;;4871136;29;20214;-74
2024/02/29 00:59:27;;;;;;;5.80;4.67;;;7.90;99.90;;;;;;4859194;29;20197;-74
2024/02/29 01:01:55;;;;;;;7.10;4.90;;;7.80;99.90;;;;;;4866136;29;20203;-74
2024/02/29 01:04:22;;;;;;;10.27;6.00;;;7.80;99.90;;;;;;4859493;29;20497;-74
2024/02/29 01:06:52;;;;;;;8.20;5.90;;;7.70;99.90;;;;;;4848901;29;20285;-74
2024/02/29 01:09:25;;;;;;;10.00;6.43;;;7.70;99.90;;;;;;4860832;29;20201;-72
2024/02/29 01:11:52;;;;;;;5.70;5.10;;;7.80;99.90;;;;;;4871056;29;20211;-73
2024/02/29 01:14:19;;;;;;;9.87;6.87;;;7.80;99.90;;;;;;4864803;29;20200;-73
2024/02/29 01:16:46;;;;;;;8.97;6.23;;;7.70;99.90;;;;;;4871982;29;20208;-73
2024/02/29 01:19:14;;;;;;;6.37;5.17;;;7.70;99.90;;;;;;4862335;29;20196;-73
2024/02/29 01:21:41;;;;;;;9.27;6.67;;;7.70;99.90;;;;;;4859982;29;20347;-75
2024/02/29 01:24:10;;;;;;;7.63;5.80;;;7.60;99.90;;;;;;4859215;29;20207;-76
2024/02/29 01:26:37;;;;;;;7.47;5.63;;;7.70;99.90;;;;;;4871271;29;20212;-76
2024/02/29 01:29:04;;;;;;;6.70;4.93;;;7.70;99.90;;;;;;4874728;29;20242;-76
2024/02/29 01:31:31;;;;;;;14.50;8.30;;;7.70;99.90;;;;;;4865758;29;20212;-76
2024/02/29 01:33:58;;;;;;;14.17;9.00;;;7.70;99.90;;;;;;4869815;29;20264;-76
2024/02/29 01:36:26;;;;;;;11.87;9.17;;;7.80;99.90;;;;;;4866017;29;20208;-76
2024/02/29 01:38:53;;;;;;;11.50;7.30;;;7.70;99.90;;;;;;4863945;29;20207;-73
2024/02/29 01:41:22;;;;;;;11.07;7.97;;;7.70;99.90;;;;;;4861033;29;20210;-74
2024/02/29 01:43:53;;;;;;;11.23;7.57;;;7.70;99.90;;;;;;4865701;29;20593;-73
2024/02/29 01:46:21;;;;;;;11.73;7.70;;;7.70;99.90;;;;;;4857954;29;20657;-75
2024/02/29 01:48:48;;;;;;;8.60;6.33;;;7.70;99.90;;;;;;4867621;29;20623;-75
2024/02/29 01:51:17;;;;;;;7.93;5.70;;;7.70;99.90;;;;;;4873069;29;20209;-72
2024/02/29 01:53:44;;;;;;;8.53;6.37;;;7.70;99.90;;;;;;4863005;29;20255;-72
2024/02/29 01:56:13;;;;;;;7.07;5.27;;;7.60;99.90;;;;;;4855795;29;20216;-72
2024/02/29 01:58:42;;;;;;;8.43;6.37;;;7.60;99.90;;;;;;4871993;29;20204;-72
2024/02/29 02:01:12;;;;;;;10.47;7.30;;;7.60;99.90;;;;;;4859565;29;20204;-74
2024/02/29 02:03:41;;;;;;;8.37;6.17;;;7.60;99.90;;;;;;4864431;29;20696;-74
2024/02/29 02:06:08;;;;;;;9.83;6.70;;;7.60;99.90;;;;;;4864270;29;20299;-74
2024/02/29 02:08:36;;;;;;;6.37;4.97;;;7.60;99.90;;;;;;4859382;29;20230;-74
2024/02/29 02:11:03;;;;;;;7.10;5.20;;;7.50;99.90;;;;;;4858825;29;20236;-74
2024/02/29 02:13:30;;;;;;;8.50;4.73;;;7.50;99.90;;;;;;4856146;29;20221;-73
2024/02/29 02:15:59;;;;;;;10.07;5.90;;;7.40;99.90;;;;;;4857398;29;20473;-72
2024/02/29 02:18:27;;;;;;;6.70;5.30;;;7.50;99.90;;;;;;4856658;29;20205;-72
2024/02/29 02:20:56;;;;;;;6.77;4.87;;;7.50;99.90;;;;;;4864138;29;20211;-72
2024/02/29 02:23:23;;;;;;;8.63;5.47;;;7.50;99.90;;;;;;4859643;29;20204;-72
2024/02/29 02:25:50;;;;;;;8.20;5.80;;;7.50;99.90;;;;;;4859084;29;20676;-72
2024/02/29 02:28:19;;;;;;;6.90;5.50;;;7.40;99.90;;;;;;4857620;29;20542;-72
2024/02/29 02:30:46;;;;;;;5.93;4.83;;;7.40;99.90;;;;;;4856349;29;20297;-73
2024/02/29 02:33:15;;;;;;;10.03;6.83;;;7.40;99.90;;;;;;4871423;29;20216;-72
2024/02/29 02:35:42;;;;;;;8.23;6.30;;;7.50;99.90;;;;;;4862035;29;20204;-74
2024/02/29 02:38:11;;;;;;;12.40;8.00;;;7.50;99.90;;;;;;4858030;29;20216;-73
2024/02/29 02:40:38;;;;;;;8.57;6.50;;;7.60;99.90;;;;;;4863411;29;20207;-74
2024/02/29 02:43:05;;;;;;;6.30;5.20;;;7.60;99.90;;;;;;4862795;29;20307;-72
2024/02/29 02:45:32;;;;;;;10.67;6.97;;;7.60;99.90;;;;;;4859246;29;20204;-72
2024/02/29 02:47:59;;;;;;;8.57;6.27;;;7.60;99.90;;;;;;4859050;29;20599;-75
2024/02/29 02:50:28;;;;;;;8.03;6.03;;;7.60;99.90;;;;;;4858037;29;20305;-75
2024/02/29 02:52:55;;;;;;;8.07;5.87;;;7.50;99.90;;;;;;4862998;29;20574;-75
2024/02/29 02:55:23;;;;;;;7.57;5.30;;;7.50;99.90;;;;;;4855546;29;20202;-74
2024/02/29 02:57:50;;;;;;;9.97;6.47;;;7.50;99.90;;;;;;4857815;29;20576;-75
2024/02/29 03:00:18;;;;;;;10.33;6.10;;;7.40;99.90;;;;;;4858382;29;20211;-75
2024/02/29 03:02:45;;;;;;;13.13;6.80;;;7.40;99.90;;;;;;4859200;29;20525;-75
2024/02/29 03:05:12;;;;;;;10.67;6.57;;;7.40;99.90;;;;;;4860963;29;20206;-75
2024/02/29 03:07:39;;;;;;;11.33;6.30;;;7.40;99.90;;;;;;4863617;29;20239;-75
2024/02/29 03:10:08;;;;;;;7.63;5.27;;;7.40;99.90;;;;;;4859570;29;20770;-75
2024/02/29 03:12:37;;;;;;;10.00;5.80;;;7.40;99.90;;;;;;4857082;29;20622;-75
2024/02/29 03:15:06;;;;;;;9.37;5.10;;;7.30;99.90;;;;;;4854052;29;20201;-75
2024/02/29 03:17:33;;;;;;;6.97;4.70;;;7.30;99.90;;;;;;4859379;29;20235;-75
2024/02/29 03:20:00;;;;;;;7.40;4.70;;;7.20;99.90;;;;;;4858228;29;20670;-75
2024/02/29 03:22:30;;;;;;;6.93;5.03;;;7.30;99.90;;;;;;4862044;29;20211;-76
2024/02/29 03:24:57;;;;;;;5.40;4.13;;;7.30;99.90;;;;;;4861886;29;20201;-75
2024/02/29 03:27:24;;;;;;;4.47;3.73;;;7.30;99.90;;;;;;4861466;29;20224;-75
2024/02/29 03:29:53;;;;;;;4.40;3.77;;;7.30;99.90;;;;;;4859836;29;20236;-76
2024/02/29 03:32:20;;;;;;;4.00;3.60;;;7.30;99.90;;;;;;4863003;29;20193;-75
2024/02/29 03:34:47;;;;;;;3.23;2.93;;;7.30;99.90;;;;;;4862631;29;20817;-75
2024/02/29 03:37:14;;;;;;;5.47;3.47;;;7.30;99.90;;;;;;4861607;29;20234;-74
2024/02/29 03:39:41;;;;;;;3.37;3.00;;;7.30;99.90;;;;;;4864135;29;20209;-73
2024/02/29 03:42:09;;;;;;;3.43;3.13;;;7.30;99.90;;;;;;4860636;29;20200;-73
2024/02/29 03:44:36;;;;;;;6.60;4.60;;;7.30;99.90;;;;;;4860989;29;20228;-75
2024/02/29 03:47:06;;;;;;;6.47;4.77;;;7.30;99.90;;;;;;4862332;29;20209;-73
2024/02/29 03:49:33;;;;;;;4.47;4.07;;;7.40;99.90;;;;;;4861581;29;20209;-73
2024/02/29 03:52:00;;;;;;;5.17;3.60;;;7.40;99.90;;;;;;4878870;29;20197;-73
2024/02/29 03:54:30;;;;;;;4.03;3.63;;;7.40;99.90;;;;;;4878381;29;20744;-74
2024/02/29 03:56:57;;;;;;;4.07;3.23;;;7.40;99.90;;;;;;4862530;29;20254;-74
2024/02/29 03:59:24;;;;;;;4.73;3.60;;;7.40;99.90;;;;;;4862030;29;20253;-74
2024/02/29 04:01:52;;;;;;;5.70;4.40;;;7.40;99.90;;;;;;4868398;29;20269;-74
2024/02/29 04:04:21;;;;;;;5.50;4.40;;;7.40;99.90;;;;;;4864029;29;20268;-72
2024/02/29 04:06:48;;;;;;;5.00;3.70;;;7.40;99.90;;;;;;4861592;29;20196;-72
2024/02/29 04:09:15;;;;;;;3.63;3.30;;;7.30;99.90;;;;;;4863160;29;20230;-72
2024/02/29 04:11:42;;;;;;;5.17;4.00;;;7.30;99.90;;;;;;4866550;29;20516;-72
2024/02/29 04:14:10;;;;;;;3.70;3.40;;;7.30;99.90;;;;;;4860253;29;20332;-73
2024/02/29 04:16:37;;;;;;;6.47;4.97;;;7.30;99.90;;;;;;4859249;29;20315;-73
2024/02/29 04:19:05;;;;;;;5.60;4.27;;;7.30;99.90;;;;;;4861465;29;20564;-72
2024/02/29 04:21:34;;;;;;;6.63;4.50;;;7.20;99.90;;;;;;4852959;29;20287;-72
2024/02/29 04:24:01;;;;;;;4.30;3.80;;;7.30;99.90;;;;;;4865370;29;20201;-72
2024/02/29 04:26:28;;;;;;;5.43;4.23;;;7.30;99.90;;;;;;4864851;29;20204;-73
2024/02/29 04:28:55;;;;;;;4.70;3.77;;;7.30;99.90;;;;;;4869689;29;20263;-73
2024/02/29 04:31:23;;;;;;;4.57;3.60;;;7.30;99.90;;;;;;4866710;29;20712;-73
2024/02/29 04:33:50;;;;;;;3.90;3.50;;;7.30;99.90;;;;;;4866903;29;20204;-73
2024/02/29 04:36:17;;;;;;;4.80;3.67;;;7.30;99.90;;;;;;4868222;29;20216;-72
2024/02/29 04:38:45;;;;;;;6.03;4.43;;;7.20;99.90;;;;;;4860164;29;20291;-72
2024/02/29 04:41:12;;;;;;;5.10;4.40;;;7.20;99.90;;;;;;4864781;29;20359;-72
2024/02/29 04:43:40;;;;;;;5.37;4.77;;;7.20;99.90;;;;;;4866335;29;20576;-73
2024/02/29 04:46:08;;;;;;;6.33;4.43;;;7.20;99.90;;;;;;4858022;29;20201;-74
2024/02/29 04:48:35;;;;;;;4.60;4.00;;;7.20;99.90;;;;;;4860247;29;20207;-72
2024/02/29 04:51:04;;;;;;;5.60;4.20;;;7.20;99.90;;;;;;4871594;29;20367;-72
2024/02/29 04:53:34;;;;;;;3.90;3.60;;;7.10;99.90;;;;;;4858000;29;20216;-72
2024/02/29 04:56:04;;;;;;;4.20;3.60;;;7.10;99.90;;;;;;4861118;29;20245;-73
2024/02/29 04:58:31;;;;;;;4.23;3.20;;;7.10;99.90;;;;;;4861480;29;20283;-73
2024/02/29 05:00:58;;;;;;;3.73;3.33;;;7.10;99.90;;;;;;4856135;29;20227;-73
2024/02/29 05:03:27;;;;;;;3.10;2.80;;;7.20;99.90;;;;;;4868012;29;20618;-72
2024/02/29 05:05:54;;;;;;;3.47;3.17;;;7.20;99.90;;;;;;4864462;29;20209;-72
2024/02/29 05:08:22;;;;;;;3.13;2.83;;;7.20;99.90;;;;;;4859566;29;20526;-73
2024/02/29 05:10:49;;;;;;;3.30;3.00;;;7.20;99.90;;;;;;4866222;29;20327;-74
2024/02/29 05:13:18;;;;;;;3.07;2.83;;;7.20;99.90;;;;;;4863244;29;20276;-74
2024/02/29 05:15:45;;;;;;;5.60;4.40;;;7.20;99.90;;;;;;4862671;29;20208;-75
2024/02/29 05:18:12;;;;;;;5.67;3.87;;;7.30;99.90;;;;;;4864711;29;20637;-75
2024/02/29 05:20:39;;;;;;;4.17;3.77;;;7.30;99.90;;;;;;4865573;29;20240;-74
2024/02/29 05:23:08;;;;;;;3.20;2.90;;;7.30;99.90;;;;;;4855590;29;20213;-75
2024/02/29 05:25:35;;;;;;;6.13;3.77;;;7.30;99.90;;;;;;4866263;29;20688;-74
2024/02/29 05:28:02;;;;;;;6.00;4.20;;;7.30;99.90;;;;;;4866492;29;20235;-74
2024/02/29 05:30:31;;;;;;;5.07;4.50;;;7.30;99.90;;;;;;4855456;29;20225;-75
2024/02/29 05:32:58;;;;;;;5.90;4.43;;;7.30;99.90;;;;;;4866945;29;20230;-73
2024/02/29 05:35:25;;;;;;;8.77;6.50;;;7.30;99.90;;;;;;4867160;29;20200;-73
2024/02/29 05:37:53;;;;;;;5.23;4.60;;;7.40;99.90;;;;;;4870238;29;20266;-72
2024/02/29 05:40:20;;;;;;;5.40;4.70;;;7.40;99.90;;;;;;4857660;29;20197;-72
2024/02/29 05:42:47;;;;;;;5.07;4.00;;;7.40;99.90;;;;;;4858412;29;20511;-74
2024/02/29 05:45:14;;;;;;;4.37;3.70;;;7.40;99.90;;;;;;4866460;29;20300;-75
2024/02/29 05:47:43;;;;;;;6.70;5.40;;;7.40;99.90;;;;;;4866983;29;20212;-75
2024/02/29 05:50:10;;;;;;;7.17;5.27;;;7.40;99.90;;;;;;4863203;29;20672;-75
2024/02/29 05:52:40;;;;;;;9.73;6.53;;;7.40;99.90;;;;;;4863009;29;20294;-75
2024/02/29 05:55:07;;;;;;;8.87;6.27;;;7.40;99.90;;;;;;4867571;29;20219;-74
2024/02/29 05:57:34;;;;;;;6.30;5.10;;;7.40;99.90;;;;;;4854361;29;20195;-75
2024/02/29 06:00:03;;;;;;;4.97;4.23;;;7.40;99.90;;;;;;4869935;29;20202;-76
2024/02/29 06:02:37;;;;;;;5.23;4.37;;;7.30;99.90;;;;;;4866246;29;20235;-75
2024/02/29 06:05:07;;;;;;;6.40;4.87;;;7.30;99.90;;;;;;4853637;29;20224;-76
2024/02/29 06:07:36;;;;;;;5.73;4.73;;;7.30;99.90;;;;;;4859207;29;20678;-76
2024/02/29 06:10:04;;;;;;;9.37;6.53;;;7.30;99.90;;;;;;4858580;29;20300;-76
2024/02/29 06:12:31;;;;;;;9.30;6.70;;;7.30;99.90;;;;;;4856979;29;20234;-76
2024/02/29 06:14:58;;;;;;;9.23;6.40;;;7.30;99.90;;;;;;4857721;29;20542;-75
2024/02/29 06:17:26;;;;;;;8.70;6.73;;;7.30;99.90;;;;;;4857507;29;20256;-75
2024/02/29 06:19:53;;;;;;;11.50;7.00;;;7.40;99.90;;;;;;4856115;29;20215;-76
2024/02/29 06:22:22;;;;;;;8.67;6.00;;;7.40;99.90;;;;;;4864866;29;20306;-75
2024/02/29 06:24:50;;;;;;;14.17;8.37;;;7.40;99.90;;;;;;4868168;29;20201;-75
2024/02/29 06:27:18;;;;;;;9.87;6.53;;;7.40;99.90;;;;;;4857959;29;20450;-75
2024/02/29 06:29:45;;;;;;;11.50;7.30;;;7.40;99.90;;;;;;4861908;29;20217;-73
2024/02/29 06:32:13;;;;;;;12.67;8.17;;;7.40;99.90;;;;;;4866679;29;20606;-73
2024/02/29 06:34:41;;;;;;;13.07;7.53;;;7.30;99.90;;;;;;4859367;29;20614;-73
2024/02/29 06:37:09;;;;;;;13.00;7.67;;;7.30;99.90;;;;;;4856800;29;20723;-74
2024/02/29 06:39:37;;;;;;;12.83;6.90;;;7.30;99.90;;;;;;4865212;29;20201;-72
2024/02/29 06:42:05;;;;;;;8.17;6.20;;;7.20;99.90;;;;;;4841247;29;20566;-72
2024/02/29 06:44:32;;;;;;;9.57;6.37;;;7.20;99.90;;;;;;4853880;29;20669;-72
2024/02/29 06:46:59;;;;;;;7.17;5.13;;;7.20;99.90;;;;;;4856673;29;20634;-72
2024/02/29 06:49:26;;;;;;;10.90;7.40;;;7.20;99.90;;;;;;4852603;29;20292;-72
2024/02/29 06:51:54;;;;;;;11.60;8.00;;;7.20;99.90;;;;;;4860425;29;20208;-73
2024/02/29 06:54:21;;;;;;;11.27;7.17;;;7.20;99.90;;;;;;4864538;29;20230;-71
2024/02/29 06:56:49;;;;;;;9.73;7.30;;;7.20;99.90;;;;;;4857206;29;20195;-73
2024/02/29 06:59:16;;;;;;;9.20;6.37;;;7.20;99.90;;;;;;4863705;29;20450;-73
2024/02/29 07:01:45;;;;;;;11.27;7.67;;;7.20;99.90;;;;;;4869621;29;20853;-73
2024/02/29 07:04:13;;;;;;;10.93;6.70;;;7.20;99.90;;;;;;4867833;29;20210;-73
2024/02/29 07:06:40;;;;;;;11.20;7.23;;;7.20;99.90;;;;;;4864242;29;20265;-73
2024/02/29 07:09:11;;;;;;;13.53;9.33;;;7.20;99.90;;;;;;4870859;29;20211;-73
2024/02/29 07:11:40;;;;;;;16.60;10.07;;;7.20;99.90;;;;;;4861560;29;20631;-73
2024/02/29 07:14:09;;;;;;;15.40;9.37;;;7.20;99.90;;;;;;4862760;29;20240;-73
2024/02/29 07:16:38;;;;;;;13.73;8.53;;;7.20;99.90;;;;;;4861400;29;20197;-73
2024/02/29 07:19:06;;;;;;;16.27;9.27;;;7.20;99.90;;;;;;4865627;29;20206;-73
2024/02/29 07:21:35;;;;;;;14.53;9.30;;;7.20;99.90;;;;;;4870187;29;20201;-73
2024/02/29 07:24:03;;;;;;;19.50;10.97;;;7.20;99.90;;;;;;4858746;29;20215;-73
2024/02/29 07:26:30;;;;;;;14.57;8.77;;;7.20;99.90;;;;;;4860129;29;20231;-73
2024/02/29 07:28:58;;;;;;;13.17;8.93;;;7.20;99.90;;;;;;4866119;29;20204;-71
2024/02/29 07:31:30;;;;;;;15.90;9.73;;;7.20;99.90;;;;;;4854795;29;20276;-71
2024/02/29 07:33:57;;;;;;;16.80;9.53;;;7.20;99.90;;;;;;4864638;29;20297;-71
2024/02/29 07:36:24;;;;;;;15.30;8.80;;;7.20;99.90;;;;;;4872947;29;20679;-71
2024/02/29 07:38:51;;;;;;;14.63;8.90;;;7.20;99.90;;;;;;4863909;29;20208;-71
2024/02/29 07:41:20;;;;;;;17.97;10.70;;;7.20;99.90;;;;;;4859478;29;20211;-71
2024/02/29 07:43:48;;;;;;;21.80;11.37;;;7.20;99.90;;;;;;4864312;29;20290;-70
2024/02/29 07:46:17;;;;;;;17.17;10.57;;;7.20;99.90;;;;;;4861046;29;20674;-71
2024/02/29 07:48:47;;;;;;;20.20;11.27;;;7.20;99.90;;;;;;4862269;29;20707;-71
2024/02/29 07:51:18;;;;;;;15.67;9.40;;;7.10;99.90;;;;;;4871800;29;20294;-70
2024/02/29 07:53:45;;;;;;;17.87;9.47;;;7.10;99.90;;;;;;4858799;29;20734;-70
2024/02/29 07:56:13;;;;;;;17.27;9.23;;;7.10;99.90;;;;;;4865960;29;20232;-70
2024/02/29 07:58:40;;;;;;;17.47;9.83;;;7.20;99.90;;;;;;4859992;29;20203;-71
2024/02/29 08:01:07;;;;;;;15.60;8.47;;;7.20;99.90;;;;;;4863660;29;20245;-71
2024/02/29 08:03:35;;;;;;;14.03;8.30;;;7.30;99.90;;;;;;4864636;29;20287;-71
2024/02/29 08:06:04;;;;;;;15.57;9.67;;;7.40;99.90;;;;;;4858796;29;20679;-71
2024/02/29 08:08:31;;;;;;;16.07;9.60;;;7.40;99.90;;;;;;4855816;29;20200;-70
2024/02/29 08:11:01;;;;;;;15.67;9.13;;;7.40;99.90;;;;;;4872068;29;20700;-70
2024/02/29 08:13:28;;;;;;;18.80;10.53;;;7.40;99.90;;;;;;4857368;29;20206;-71
2024/02/29 08:15:55;;;;;;;16.83;10.37;;;7.50;99.90;;;;;;4875738;29;20759;-71
2024/02/29 08:18:22;;;;;;;18.83;10.27;;;7.50;99.90;;;;;;4867085;29;20208;-71
2024/02/29 08:20:49;;;;;;;17.53;9.87;;;7.60;99.90;;;;;;4859686;29;20211;-72
2024/02/29 08:23:18;;;;;;;19.47;10.90;;;7.60;99.90;;;;;;4858770;29;20296;-71
2024/02/29 08:25:45;;;;;;;18.60;9.97;;;7.50;99.90;;;;;;4859719;29;20204;-71
2024/02/29 08:28:12;;;;;;;18.17;10.40;;;7.60;99.90;;;;;;4861321;29;20198;-71
2024/02/29 08:30:42;;;;;;;12.87;8.00;;;7.50;99.90;;;;;;4874238;29;20224;-70
2024/02/29 08:33:09;;;;;;;15.23;8.57;;;7.50;99.90;;;;;;4868050;29;20236;-70
2024/02/29 08:35:36;;;;;;;16.23;9.40;;;7.60;99.90;;;;;;4856175;29;20205;-71
2024/02/29 08:38:03;;;;;;;16.80;9.97;;;7.60;99.90;;;;;;4871407;29;20291;-71
2024/02/29 08:40:32;;;;;;;16.20;9.27;;;7.60;99.90;;;;;;4868144;29;20211;-70
2024/02/29 08:42:59;;;;;;;14.23;8.97;;;7.50;99.90;;;;;;4856617;29;20303;-70
2024/02/29 08:45:28;;;;;;;15.33;9.27;;;7.50;99.90;;;;;;4873928;29;20673;-70
2024/02/29 08:47:55;;;;;;;17.23;10.63;;;7.50;99.90;;;;;;4865342;29;20196;-71
2024/02/29 08:50:22;;;;;;;19.10;10.30;;;7.50;99.90;;;;;;4866051;29;20672;-71
2024/02/29 08:52:49;;;;;;;15.23;8.93;;;7.60;99.90;;;;;;4858897;29;20238;-71
2024/02/29 08:55:17;;;;;;;11.93;7.80;;;7.60;99.90;;;;;;4862010;29;20375;-71
2024/02/29 08:57:47;;;;;;;17.33;8.27;;;7.70;99.90;;;;;;4863310;29;20626;-71
2024/02/29 09:00:16;;;;;;;12.90;8.23;;;7.70;99.90;;;;;;4872402;29;20712;-71
2024/02/29 09:02:44;;;;;;;12.53;7.97;;;7.80;99.90;;;;;;4864439;29;20204;-71
2024/02/29 09:05:12;;;;;;;11.37;7.67;;;7.80;99.90;;;;;;4858385;29;20240;-71
2024/02/29 09:07:39;;;;;;;13.27;7.67;;;7.80;99.90;;;;;;4864377;29;20204;-71
2024/02/29 09:10:09;;;;;;;13.30;8.10;;;7.90;99.90;;;;;;4866602;29;20246;-71
2024/02/29 09:12:36;;;;;;;11.70;7.53;;;7.90;99.90;;;;;;4873353;29;20214;-70
2024/02/29 09:15:05;;;;;;;13.93;8.07;;;7.80;99.90;;;;;;4863741;29;20630;-71
2024/02/29 09:17:33;;;;;;;13.20;7.80;;;7.80;99.90;;;;;;4868717;29;20200;-71
2024/02/29 09:20:00;;;;;;;10.93;7.20;;;7.90;99.90;;;;;;4871777;29;20652;-71
2024/02/29 09:22:27;;;;;;;12.23;7.50;;;7.90;99.90;;;;;;4860915;29;20195;-71
2024/02/29 09:24:54;;;;;;;13.00;7.63;;;7.90;99.90;;;;;;4861579;29;20670;-70
2024/02/29 09:27:22;;;;;;;11.70;6.90;;;7.90;99.90;;;;;;4869133;29;20204;-70
2024/02/29 09:29:50;;;;;;;11.87;7.20;;;8.00;99.90;;;;;;4865641;29;20200;-70
2024/02/29 09:32:19;;;;;;;13.13;7.73;;;7.90;99.90;;;;;;4862852;29;20221;-71
2024/02/29 09:34:46;;;;;;;11.90;7.20;;;8.00;99.90;;;;;;4860379;29;20215;-71
2024/02/29 09:37:13;;;;;;;11.10;6.60;;;8.00;99.90;;;;;;4856721;29;20343;-71
2024/02/29 09:39:40;;;;;;;11.37;7.23;;;8.10;99.90;;;;;;4861124;29;20561;-72
2024/02/29 09:42:09;;;;;;;9.13;6.57;;;8.10;99.90;;;;;;4859312;29;20205;-71
2024/02/29 09:44:37;;;;;;;11.63;7.33;;;8.10;99.90;;;;;;4856257;29;20206;-70
2024/02/29 09:47:06;;;;;;;14.00;7.73;;;8.10;99.90;;;;;;4862326;29;20212;-70
2024/02/29 09:49:34;;;;;;;14.47;7.10;;;8.20;99.90;;;;;;4864927;29;20280;-70
2024/02/29 09:52:02;;;;;;;8.17;5.87;;;8.20;99.90;;;;;;4866429;29;20708;-70
2024/02/29 09:54:34;;;;;;;8.07;5.63;;;8.20;99.90;;;;;;4866356;29;20204;-70
2024/02/29 09:57:03;;;;;;;10.60;6.30;;;8.20;99.90;;;;;;4867578;29;20280;-71
2024/02/29 09:59:32;;;;;;;9.67;5.90;;;8.20;99.90;;;;;;4867670;29;20203;-71
2024/02/29 10:02:00;;;;;;;9.87;6.63;;;8.20;99.90;;;;;;4868177;29;20214;-72
2024/02/29 10:04:28;;;;;;;11.57;6.67;;;8.20;99.90;;;;;;4854217;29;20201;-71
2024/02/29 10:06:57;;;;;;;9.80;6.40;;;8.20;99.90;;;;;;4860839;29;20583;-71
2024/02/29 10:09:24;;;;;;;8.93;6.00;;;8.30;99.90;;;;;;4861365;29;20190;-71
2024/02/29 10:11:54;;;;;;;8.47;6.10;;;8.50;99.90;;;;;;4854865;29;20785;-71
2024/02/29 10:14:25;;;;;;;7.10;5.53;;;8.60;99.90;;;;;;4862821;29;20201;-71
2024/02/29 10:16:52;;;;;;;7.57;5.37;;;8.60;99.90;;;;;;4859971;29;20296;-71
2024/02/29 10:19:20;;;;;;;7.87;5.80;;;8.70;99.90;;;;;;4861856;29;20653;-71
2024/02/29 10:21:48;;;;;;;8.47;6.20;;;8.80;99.90;;;;;;4870972;29;20200;-71
2024/02/29 10:24:19;;;;;;;11.70;6.20;;;9.40;99.90;;;;;;4872733;29;20541;-71
2024/02/29 10:26:50;;;;;;;10.03;6.80;;;10.10;99.90;;;;;;4851855;29;20202;-71
2024/02/29 10:29:18;;;;;;;9.70;6.80;;;10.90;99.90;;;;;;4861097;29;20210;-71
2024/02/29 10:31:45;;;;;;;9.00;6.20;;;11.20;99.90;;;;;;4863444;29;20706;-72
2024/02/29 10:34:12;;;;;;;9.00;6.10;;;11.20;99.90;;;;;;4872971;29;20215;-71
2024/02/29 10:36:40;;;;;;;13.57;8.03;;;11.10;99.90;;;;;;4860934;29;20233;-71
2024/02/29 10:39:07;;;;;;;9.87;6.30;;;11.00;99.50;;;;;;4859842;29;20677;-71
2024/02/29 10:41:43;;;;;;;11.90;7.60;;;11.10;99.70;;;;;;4862997;29;20291;-71
2024/02/29 10:44:11;;;;;;;12.23;6.67;;;11.40;99.10;;;;;;4861457;29;20631;-71
2024/02/29 10:46:39;;;;;;;8.07;6.07;;;11.60;99.20;;;;;;4861982;29;20223;-71
2024/02/29 10:49:12;;;;;;;10.40;7.13;;;11.70;98.80;;;;;;4853232;29;20215;-70
2024/02/29 10:51:44;;;;;;;10.90;6.73;;;11.50;98.60;;;;;;4863174;29;20592;-71
2024/02/29 10:54:19;;;;;;;10.27;6.57;;;11.60;98.90;;;;;;4869887;29;20665;-70
2024/02/29 10:56:49;;;;;;;10.03;7.10;;;12.00;98.40;;;;;;4859352;29;20201;-71
2024/02/29 10:59:18;;;;;;;12.00;6.90;;;11.90;97.80;;;;;;4857925;29;20218;-70
2024/02/29 11:01:46;;;;;;;12.43;6.80;;;11.80;97.70;;;;;;4866710;29;20278;-70
2024/02/29 11:04:14;;;;;;;12.00;6.07;;;12.00;97.60;;;;;;4862162;29;20208;-71
2024/02/29 11:06:44;;;;;;;14.37;6.77;;;12.10;97.70;;;;;;4861679;29;20240;-71
2024/02/29 11:09:13;;;;;;;12.07;6.97;;;12.40;97.20;;;;;;4859714;29;20200;-71
2024/02/29 11:11:42;;;;;;;11.20;7.00;;;12.40;96.10;;;;;;4866336;29;20666;-71
2024/02/29 11:14:12;;;;;;;9.73;6.47;;;12.30;96.30;;;;;;4867546;29;20210;-70
2024/02/29 11:16:41;;;;;;;10.73;7.03;;;12.30;96.70;;;;;;4860122;29;20313;-71
2024/02/29 11:19:11;;;;;;;12.60;6.90;;;12.30;96.60;;;;;;4857535;29;20211;-72
2024/02/29 11:21:39;;;;;;;10.10;6.40;;;12.50;96.20;;;;;;4857564;29;20673;-71
2024/02/29 11:24:07;;;;;;;13.30;7.10;;;12.70;96.20;;;;;;4857125;29;20350;-71
2024/02/29 11:26:35;;;;;;;10.50;6.50;;;13.00;95.20;;;;;;4856517;29;20207;-70
2024/02/29 11:29:14;;;;;;;10.07;6.60;;;13.10;94.70;;;;;;4865367;29;20271;-71
2024/02/29 11:31:43;;;;;;;12.43;7.23;;;13.10;94.70;;;;;;4851678;29;20227;-71
2024/02/29 11:34:12;;;;;;;9.47;6.50;;;13.00;94.60;;;;;;4860175;29;20488;-71
2024/02/29 11:36:43;;;;;;;10.10;5.80;;;12.90;95.20;;;;;;4864157;29;20210;-71
2024/02/29 11:39:10;;;;;;;9.83;6.37;;;12.90;95.20;;;;;;4861431;29;20208;-71
2024/02/29 11:41:38;;;;;;;10.97;6.77;;;13.00;95.50;;;;;;4859182;29;20202;-71
2024/02/29 11:44:05;;;;;;;9.50;6.37;;;13.00;95.40;;;;;;4873504;29;20251;-71
2024/02/29 11:46:33;;;;;;;10.23;6.67;;;13.10;95.60;;;;;;4863890;29;20204;-71
2024/02/29 11:49:01;;;;;;;10.90;7.00;;;13.20;95.10;;;;;;4883212;29;20676;-71
2024/02/29 11:51:29;;;;;;;11.47;7.47;;;13.40;95.10;;;;;;4866652;29;20338;-71
2024/02/29 11:53:56;;;;;;;11.83;6.97;;;13.50;94.70;;;;;;4869995;29;20284;-71
2024/02/29 11:56:23;;;;;;;9.93;6.40;;;13.70;94.50;;;;;;4867335;29;20297;-71
2024/02/29 11:58:52;;;;;;;11.63;7.63;;;13.80;94.50;;;;;;4865634;29;20502;-71
2024/02/29 12:01:23;;;;;;;13.10;7.37;;;13.90;94.10;;;;;;4867278;29;20204;-70
2024/02/29 12:03:52;;;;;;;10.23;5.50;;;13.80;93.70;;;;;;4858946;29;20216;-71
2024/02/29 12:06:19;;;;;;;9.17;6.73;;;13.80;94.10;;;;;;4865560;29;20277;-71
2024/02/29 12:08:47;;;;;;;10.27;6.83;;;13.70;94.20;;;;;;4863507;29;20233;-70
2024/02/29 12:11:14;;;;;;;8.37;6.07;;;13.70;94.10;;;;;;4870415;29;20235;-70
2024/02/29 12:13:42;;;;;;;8.27;5.70;;;13.60;94.00;;;;;;4869605;29;20728;-71
2024/02/29 12:16:10;;;;;;;8.27;5.73;;;13.70;94.30;;;;;;4854511;29;20390;-71
2024/02/29 12:18:37;;;;;;;7.10;5.10;;;13.80;94.70;;;;;;4857828;29;20202;-71
2024/02/29 12:21:06;;;;;;;6.60;5.10;;;13.90;94.20;;;;;;4857857;29;20202;-71
2024/02/29 12:23:33;;;;;;;6.47;4.63;;;14.00;93.60;;;;;;4862351;29;20201;-71
2024/02/29 12:26:09;;;;;;;7.47;4.97;;;14.20;93.40;;;;;;4870120;29;20202;-71
2024/02/29 12:28:36;;;;;;;6.07;4.73;;;14.00;93.30;;;;;;4865038;29;20618;-71
2024/02/29 12:31:06;;;;;;;4.73;4.03;;;14.10;93.30;;;;;;4868562;29;20272;-70
2024/02/29 12:33:36;;;;;;;5.80;4.70;;;14.00;93.50;;;;;;4866464;29;20234;-71
2024/02/29 12:36:05;;;;;;;8.13;5.47;;;13.80;93.50;;;;;;4850733;29;20194;-70
2024/02/29 12:38:33;;;;;;;6.33;4.60;;;13.60;93.60;;;;;;4860137;29;20632;-71
2024/02/29 12:41:02;;;;;;;8.40;5.43;;;13.30;94.00;;;;;;4863240;29;20200;-71
2024/02/29 12:43:29;;;;;;;8.23;5.30;;;13.20;94.50;;;;;;4868460;29;20702;-70
2024/02/29 12:45:56;;;;;;;7.57;5.23;;;13.30;94.80;;;;;;4855539;29;20365;-71
2024/02/29 12:48:24;;;;;;;10.17;6.07;;;13.20;94.80;;;;;;4856222;29;20678;-71
2024/02/29 12:50:51;;;;;;;8.93;5.70;;;13.40;94.70;;;;;;4869000;29;20310;-71
2024/02/29 12:53:20;;;;;;;10.23;5.10;;;13.60;94.50;;;;;;4858158;29;20218;-72